createdAt,value
2022-11-07T00:01:18.873Z,79.72
2022-11-07T00:03:45.747Z,80.26
2022-11-07T00:06:12.568Z,80.01
2022-11-07T00:08:39.065Z,80.90
2022-11-07T00:11:07.046Z,80.87
2022-11-07T00:13:34.083Z,81.15
2022-11-07T00:16:02.346Z,81.70
2022-11-07T00:18:28.883Z,82.15
2022-11-07T00:20:55.797Z,82.20
2022-11-07T00:23:22.360Z,82.46
2022-11-07T00:25:49.114Z,83.62
2022-11-07T00:28:15.896Z,83.62
2022-11-07T00:30:42.479Z,83.62
2022-11-07T00:33:09.148Z,83.98
2022-11-07T00:35:35.642Z,84.52
2022-11-07T00:38:02.184Z,84.74
2022-11-07T00:40:28.683Z,84.85
2022-11-07T00:42:55.280Z,84.88
2022-11-07T00:45:21.772Z,85.69
2022-11-07T00:47:48.278Z,85.98
2022-11-07T00:50:14.817Z,86.38
2022-11-07T00:52:41.347Z,86.66
2022-11-07T00:55:07.991Z,86.85
2022-11-07T00:57:34.675Z,87.37
2022-11-07T01:00:01.165Z,86.88
2022-11-07T01:02:27.907Z,87.07
2022-11-07T01:05:12.973Z,87.24
2022-11-07T01:07:40.066Z,87.27
2022-11-07T01:10:07.691Z,87.77
2022-11-07T01:12:35.534Z,88.12
2022-11-07T01:15:03.927Z,88.21
2022-11-07T01:17:30.643Z,87.94
2022-11-07T01:19:57.183Z,88.20
2022-11-07T01:22:23.671Z,87.94
2022-11-07T01:24:50.328Z,88.22
2022-11-07T01:27:16.871Z,87.48
2022-11-07T01:29:43.348Z,87.75
2022-11-07T01:32:09.838Z,88.42
2022-11-07T01:34:39.310Z,88.09
2022-11-07T01:37:05.914Z,88.19
2022-11-07T01:39:32.735Z,88.88
2022-11-07T01:41:59.374Z,89.37
2022-11-07T01:44:25.957Z,88.76
2022-11-07T01:46:57.295Z,89.04
2022-11-07T01:49:32.710Z,88.42
2022-11-07T01:52:14.782Z,88.74
2022-11-07T01:54:47.980Z,89.08
2022-11-07T01:57:21.205Z,89.25
2022-11-07T01:59:49.858Z,88.62
2022-11-07T02:02:17.692Z,88.85
2022-11-07T02:04:44.623Z,88.65
2022-11-07T02:07:22.644Z,88.28
2022-11-07T02:09:52.017Z,87.87
2022-11-07T02:12:19.785Z,87.40
2022-11-07T02:14:46.529Z,88.05
2022-11-07T02:17:14.470Z,87.57
2022-11-07T02:19:47.609Z,87.62
2022-11-07T02:22:35.039Z,87.43
2022-11-07T02:25:05.748Z,87.63
2022-11-07T02:27:33.748Z,87.30
2022-11-07T02:30:05.526Z,86.87
2022-11-07T02:32:32.519Z,86.67
2022-11-07T02:35:01.742Z,86.52
2022-11-07T02:37:34.190Z,86.66
2022-11-07T02:40:04.681Z,86.63
2022-11-07T02:42:43.377Z,87.01
2022-11-07T02:45:13.945Z,86.80
2022-11-07T02:47:40.646Z,86.66
2022-11-07T02:50:11.832Z,87.17
2022-11-07T02:52:38.426Z,86.87
2022-11-07T02:55:06.621Z,86.31
2022-11-07T02:57:33.456Z,86.27
2022-11-07T02:59:59.980Z,86.90
2022-11-07T03:02:27.005Z,86.13
2022-11-07T03:04:53.927Z,86.90
2022-11-07T03:07:20.515Z,86.33
2022-11-07T03:09:47.059Z,86.25
2022-11-07T03:12:13.534Z,86.61
2022-11-07T03:14:40.172Z,86.78
2022-11-07T03:17:06.810Z,86.77
2022-11-07T03:19:33.521Z,86.66
2022-11-07T03:22:00.046Z,86.44
2022-11-07T03:24:26.643Z,87.01
2022-11-07T03:26:53.240Z,86.68
2022-11-07T03:29:20.635Z,87.07
2022-11-07T03:31:47.158Z,86.62
2022-11-07T03:34:13.707Z,86.26
2022-11-07T03:36:40.621Z,86.67
2022-11-07T03:39:07.279Z,86.43
2022-11-07T03:41:33.828Z,86.92
2022-11-07T03:44:00.386Z,86.81
2022-11-07T03:46:26.930Z,86.67
2022-11-07T03:48:53.438Z,86.51
2022-11-07T03:51:20.061Z,86.39
2022-11-07T03:53:46.785Z,86.68
2022-11-07T03:56:13.595Z,86.42
2022-11-07T03:58:40.180Z,86.56
2022-11-07T04:01:06.815Z,86.33
2022-11-07T04:03:33.361Z,87.02
2022-11-07T04:05:59.943Z,86.44
2022-11-07T04:08:26.464Z,86.98
2022-11-07T04:10:53.933Z,86.42
2022-11-07T04:13:39.157Z,86.42
2022-11-07T04:16:28.490Z,86.13
2022-11-07T04:18:56.131Z,86.40
2022-11-07T04:21:23.411Z,86.44
2022-11-07T04:23:50.268Z,86.94
2022-11-07T04:26:38.372Z,86.91
2022-11-07T04:29:05.148Z,86.91
2022-11-07T04:31:31.714Z,86.96
2022-11-07T04:33:58.309Z,87.00
2022-11-07T04:36:24.845Z,86.99
2022-11-07T04:38:51.348Z,87.04
2022-11-07T04:41:20.620Z,86.75
2022-11-07T04:43:47.561Z,86.88
2022-11-07T04:46:14.587Z,87.24
2022-11-07T04:48:41.084Z,87.09
2022-11-07T04:51:13.528Z,87.53
2022-11-07T04:53:40.301Z,87.00
2022-11-07T04:56:07.204Z,87.19
2022-11-07T04:58:33.706Z,87.96
2022-11-07T05:01:00.303Z,87.97
2022-11-07T05:03:26.849Z,88.24
2022-11-07T05:05:53.713Z,88.15
2022-11-07T05:08:20.312Z,87.95
2022-11-07T05:10:46.839Z,87.98
2022-11-07T05:13:13.623Z,87.68
2022-11-07T05:15:40.917Z,87.72
2022-11-07T05:18:07.430Z,87.78
2022-11-07T05:20:38.996Z,88.06
2022-11-07T05:23:13.039Z,87.34
2022-11-07T05:25:42.718Z,87.58
2022-11-07T05:28:14.678Z,87.65
2022-11-07T05:30:42.409Z,88.31
2022-11-07T05:33:10.438Z,88.47
2022-11-07T05:35:37.411Z,88.62
2022-11-07T05:38:04.728Z,88.95
2022-11-07T05:40:31.815Z,88.69
2022-11-07T05:43:07.122Z,88.69
2022-11-07T05:45:37.701Z,88.83
2022-11-07T05:48:06.787Z,89.40
2022-11-07T05:50:33.613Z,89.63
2022-11-07T05:53:00.447Z,89.43
2022-11-07T05:55:27.528Z,89.68
2022-11-07T05:57:54.270Z,89.89
2022-11-07T06:00:20.841Z,89.60
2022-11-07T06:02:55.838Z,89.87
2022-11-07T06:05:24.280Z,90.22
2022-11-07T06:07:51.093Z,89.93
2022-11-07T06:10:17.826Z,91.24
2022-11-07T06:12:44.322Z,91.31
2022-11-07T06:15:11.890Z,90.87
2022-11-07T06:17:39.059Z,91.55
2022-11-07T06:20:06.260Z,92.29
2022-11-07T06:22:32.763Z,93.01
2022-11-07T06:24:59.300Z,92.82
2022-11-07T06:27:25.847Z,92.41
2022-11-07T06:29:52.427Z,91.67
2022-11-07T06:32:19.026Z,91.46
2022-11-07T06:34:45.664Z,90.65
2022-11-07T06:37:12.166Z,90.24
2022-11-07T06:39:38.702Z,90.21
2022-11-07T06:42:05.309Z,89.80
2022-11-07T06:44:31.907Z,90.24
2022-11-07T06:46:58.515Z,90.33
2022-11-07T06:49:25.320Z,90.39
2022-11-07T06:51:51.960Z,90.71
2022-11-07T06:54:18.544Z,91.05
2022-11-07T06:56:45.194Z,90.60
2022-11-07T06:59:12.006Z,91.09
2022-11-07T07:01:38.744Z,91.18
2022-11-07T07:04:05.485Z,91.39
2022-11-07T07:06:32.038Z,91.61
2022-11-07T07:08:58.552Z,92.20
2022-11-07T07:11:25.496Z,92.51
2022-11-07T07:13:52.285Z,92.70
2022-11-07T07:16:18.898Z,92.68
2022-11-07T07:18:45.855Z,92.95
2022-11-07T07:21:14.550Z,93.26
2022-11-07T07:23:41.267Z,93.59
2022-11-07T07:26:12.433Z,93.21
2022-11-07T07:28:39.111Z,93.50
2022-11-07T07:31:14.667Z,93.93
2022-11-07T07:33:42.364Z,93.47
2022-11-07T07:36:09.761Z,94.36
2022-11-07T07:38:36.996Z,93.82
2022-11-07T07:41:04.147Z,94.21
2022-11-07T07:43:31.367Z,93.89
2022-11-07T07:45:59.457Z,94.13
2022-11-07T07:48:26.339Z,94.71
2022-11-07T07:50:53.139Z,94.66
2022-11-07T07:53:20.053Z,94.53
2022-11-07T07:55:46.795Z,94.29
2022-11-07T07:58:13.996Z,94.75
2022-11-07T08:00:41.266Z,94.20
2022-11-07T08:03:11.426Z,93.71
2022-11-07T08:05:39.353Z,93.76
2022-11-07T08:08:07.459Z,94.04
2022-11-07T08:10:42.012Z,93.65
2022-11-07T08:13:09.463Z,93.87
2022-11-07T08:15:35.950Z,93.25
2022-11-07T08:18:03.931Z,93.36
2022-11-07T08:20:30.978Z,93.09
2022-11-07T08:23:06.903Z,93.06
2022-11-07T08:25:36.555Z,92.98
2022-11-07T08:28:03.079Z,92.62
2022-11-07T08:30:31.671Z,92.78
2022-11-07T08:33:03.188Z,92.32
2022-11-07T08:35:30.903Z,91.86
2022-11-07T08:37:59.184Z,91.51
2022-11-07T08:40:26.693Z,92.15
2022-11-07T08:42:53.264Z,91.49
2022-11-07T08:45:19.852Z,92.00
2022-11-07T08:47:46.388Z,92.38
2022-11-07T08:50:13.031Z,91.38
2022-11-07T08:52:39.533Z,91.89
2022-11-07T08:55:06.555Z,91.49
2022-11-07T08:57:33.082Z,90.80
2022-11-07T08:59:59.724Z,91.79
2022-11-07T09:03:08.440Z,91.16
2022-11-07T09:05:13.689Z,91.15
2022-11-07T09:07:40.447Z,90.70
2022-11-07T09:10:07.633Z,91.03
2022-11-07T09:12:34.379Z,90.78
2022-11-07T09:15:00.875Z,90.93
2022-11-07T09:17:27.941Z,91.03
2022-11-07T09:19:54.519Z,90.38
2022-11-07T09:22:21.045Z,89.75
2022-11-07T09:24:47.535Z,89.36
2022-11-07T09:27:14.076Z,89.66
2022-11-07T09:29:40.691Z,89.37
2022-11-07T09:32:30.429Z,88.44
2022-11-07T09:34:59.376Z,88.60
2022-11-07T09:37:28.555Z,88.27
2022-11-07T09:39:55.100Z,88.13
2022-11-07T09:42:41.418Z,87.92
2022-11-07T09:45:13.769Z,87.19
2022-11-07T09:47:47.790Z,87.16
2022-11-07T09:50:24.888Z,86.67
2022-11-07T09:53:01.067Z,85.81
2022-11-07T09:55:38.094Z,86.03
2022-11-07T09:58:18.857Z,84.67
2022-11-07T10:00:45.756Z,84.40
2022-11-07T10:03:12.666Z,84.25
2022-11-07T10:05:54.796Z,84.21
2022-11-07T10:08:35.265Z,83.72
2022-11-07T10:11:13.669Z,83.40
2022-11-07T10:14:08.935Z,82.17
2022-11-07T10:16:55.975Z,81.91
2022-11-07T10:19:34.592Z,81.79
2022-11-07T10:22:22.974Z,81.69
2022-11-07T10:24:52.232Z,79.30
2022-11-07T10:27:21.497Z,80.28
2022-11-07T10:29:52.664Z,80.12
2022-11-07T10:32:34.687Z,80.11
2022-11-07T10:35:13.100Z,79.35
2022-11-07T10:37:39.613Z,79.38
2022-11-07T10:40:18.974Z,79.04
2022-11-07T10:42:48.000Z,78.82
2022-11-07T10:45:16.506Z,78.60
2022-11-07T10:47:43.378Z,77.62
2022-11-07T10:50:22.604Z,77.55
2022-11-07T10:53:18.268Z,77.98
2022-11-07T10:55:47.243Z,77.42
2022-11-07T10:58:21.332Z,76.37
2022-11-07T11:01:22.947Z,76.16
2022-11-07T11:03:49.932Z,77.04
2022-11-07T11:06:19.095Z,76.12
2022-11-07T11:08:47.516Z,76.56
2022-11-07T11:11:23.890Z,75.82
2022-11-07T11:14:01.789Z,75.60
2022-11-07T11:16:30.741Z,76.43
2022-11-07T11:18:59.477Z,75.55
2022-11-07T11:21:26.130Z,75.77
2022-11-07T11:23:54.496Z,76.12
2022-11-07T11:26:28.186Z,76.45
2022-11-07T11:29:03.145Z,76.03
2022-11-07T11:31:42.352Z,76.32
2022-11-07T11:34:30.588Z,76.58
2022-11-07T11:37:01.186Z,76.66
2022-11-07T11:39:42.486Z,76.92
2022-11-07T11:42:25.588Z,76.65
2022-11-07T11:44:55.405Z,76.61
2022-11-07T11:47:34.497Z,76.88
2022-11-07T11:50:11.021Z,76.88
2022-11-07T11:52:37.781Z,76.99
2022-11-07T11:55:14.119Z,75.92
2022-11-07T11:58:07.463Z,74.96
2022-11-07T12:00:49.241Z,75.53
2022-11-07T12:03:57.602Z,75.43
2022-11-07T12:06:34.814Z,75.60
2022-11-07T12:09:24.553Z,74.36
2022-11-07T12:12:09.834Z,74.39
2022-11-07T12:15:04.278Z,74.70
2022-11-07T12:17:52.700Z,74.19
2022-11-07T12:20:42.426Z,73.87
2022-11-07T12:23:21.292Z,73.95
2022-11-07T12:26:01.730Z,73.87
2022-11-07T12:28:54.477Z,73.73
2022-11-07T12:31:35.868Z,73.66
2022-11-07T12:34:25.535Z,73.04
2022-11-07T12:37:16.961Z,72.71
2022-11-07T12:39:55.662Z,72.20
2022-11-07T12:42:24.947Z,72.78
2022-11-07T12:45:25.036Z,71.72
2022-11-07T12:48:20.646Z,72.16
2022-11-07T12:51:25.931Z,72.20
2022-11-07T12:54:27.191Z,72.17
2022-11-07T12:56:56.173Z,71.72
2022-11-07T12:59:26.766Z,72.22
2022-11-07T13:02:07.186Z,72.80
2022-11-07T13:04:44.975Z,71.46
2022-11-07T13:07:27.806Z,71.89
2022-11-07T13:10:14.051Z,71.68
2022-11-07T13:12:48.986Z,71.08
2022-11-07T13:15:16.666Z,71.28
2022-11-07T13:17:46.068Z,71.16
2022-11-07T13:20:22.010Z,70.78
2022-11-07T13:22:53.862Z,70.67
2022-11-07T13:25:34.761Z,70.05
2022-11-07T13:28:23.572Z,69.80
2022-11-07T13:30:56.408Z,70.56
2022-11-07T13:33:34.732Z,70.01
2022-11-07T13:36:26.328Z,70.59
2022-11-07T13:38:57.539Z,70.84
2022-11-07T13:41:24.837Z,71.20
2022-11-07T13:43:55.264Z,71.74
2022-11-07T13:46:41.616Z,71.86
2022-11-07T13:49:14.181Z,71.89
2022-11-07T13:51:44.291Z,72.46
2022-11-07T13:55:05.535Z,72.57
2022-11-07T13:57:39.768Z,72.66
2022-11-07T14:00:14.211Z,72.32
2022-11-07T14:02:53.707Z,73.29
2022-11-07T14:05:27.121Z,72.97
2022-11-07T14:08:03.120Z,74.21
2022-11-07T14:10:38.846Z,75.05
2022-11-07T14:13:13.143Z,75.10
2022-11-07T14:15:58.931Z,75.64
2022-11-07T14:18:31.651Z,75.82
2022-11-07T14:20:59.491Z,76.60
2022-11-07T14:23:29.134Z,76.88
2022-11-07T14:26:05.020Z,76.97
2022-11-07T14:28:37.570Z,77.68
2022-11-07T14:31:16.841Z,78.09
2022-11-07T14:33:52.124Z,79.39
2022-11-07T14:36:19.646Z,79.30
2022-11-07T14:38:52.143Z,79.29
2022-11-07T14:41:19.750Z,79.51
2022-11-07T14:43:47.996Z,79.54
2022-11-07T14:46:23.961Z,79.49
2022-11-07T14:48:51.784Z,79.60
2022-11-07T14:51:25.430Z,79.97
2022-11-07T14:53:52.025Z,80.14
2022-11-07T14:56:23.489Z,81.34
2022-11-07T14:58:50.219Z,85.05
2022-11-07T15:01:27.781Z,87.25
2022-11-07T15:04:01.136Z,87.36
2022-11-07T15:06:42.777Z,87.50
2022-11-07T15:09:11.173Z,87.67
2022-11-07T15:11:40.158Z,88.26
2022-11-07T15:14:41.092Z,88.74
2022-11-07T15:17:21.541Z,88.36
2022-11-07T15:19:57.959Z,88.75
2022-11-07T15:22:29.917Z,88.82
2022-11-07T15:24:56.453Z,88.27
2022-11-07T15:27:31.125Z,88.37
2022-11-07T15:30:02.833Z,88.59
2022-11-07T15:32:40.891Z,88.43
2022-11-07T15:38:06.785Z,88.75
2022-11-07T15:40:33.380Z,87.97
2022-11-07T15:42:59.947Z,88.33
2022-11-07T15:45:26.561Z,88.00
2022-11-07T15:47:53.153Z,88.24
2022-11-07T15:50:24.768Z,88.64
2022-11-07T15:52:52.816Z,88.46
2022-11-07T15:55:21.909Z,88.52
2022-11-07T15:57:51.633Z,88.30
2022-11-07T16:00:24.022Z,88.33
2022-11-07T16:02:50.910Z,88.79
2022-11-07T16:05:18.638Z,88.49
2022-11-07T16:07:46.350Z,88.69
2022-11-07T16:10:20.698Z,88.95
2022-11-07T16:12:48.245Z,88.90
2022-11-07T16:15:17.212Z,88.88
2022-11-07T16:17:44.325Z,89.10
2022-11-07T16:20:21.516Z,89.21
2022-11-07T16:22:50.023Z,89.13
2022-11-07T16:25:22.033Z,89.31
2022-11-07T16:27:55.057Z,89.32
2022-11-07T16:30:22.325Z,89.32
2022-11-07T16:32:48.999Z,89.21
2022-11-07T16:35:15.628Z,88.84
2022-11-07T16:37:42.325Z,89.22
2022-11-07T16:40:13.944Z,88.90
2022-11-07T16:42:40.704Z,89.23
2022-11-07T16:45:07.805Z,89.23
2022-11-07T16:47:38.793Z,88.43
2022-11-07T16:50:06.506Z,88.93
2022-11-07T16:52:33.302Z,88.51
2022-11-07T16:54:59.858Z,88.50
2022-11-07T16:57:26.590Z,88.58
2022-11-07T16:59:56.000Z,88.45
2022-11-07T17:02:25.228Z,88.30
2022-11-07T17:04:54.180Z,88.06
2022-11-07T17:07:23.031Z,87.33
2022-11-07T17:09:52.595Z,87.68
2022-11-07T17:12:21.878Z,87.36
2022-11-07T17:14:48.931Z,87.07
2022-11-07T17:17:17.433Z,87.16
2022-11-07T17:19:44.218Z,87.17
2022-11-07T17:22:12.049Z,86.68
2022-11-07T17:24:39.357Z,86.77
2022-11-07T17:27:18.770Z,86.91
2022-11-07T17:29:45.288Z,86.43
2022-11-07T17:32:11.794Z,86.82
2022-11-07T17:34:38.327Z,86.47
2022-11-07T17:37:05.195Z,86.16
2022-11-07T17:39:31.764Z,86.06
2022-11-07T17:41:58.817Z,85.99
2022-11-07T17:44:25.437Z,86.17
2022-11-07T17:46:52.338Z,86.17
2022-11-07T17:49:20.645Z,86.02
2022-11-07T17:51:48.342Z,85.97
2022-11-07T17:54:15.827Z,85.72
2022-11-07T17:56:44.952Z,85.63
2022-11-07T17:59:16.822Z,85.31
2022-11-07T18:01:44.710Z,85.49
2022-11-07T18:04:13.120Z,85.49
2022-11-07T18:06:42.409Z,85.59
2022-11-07T18:09:13.749Z,86.05
2022-11-07T18:11:40.637Z,85.60
2022-11-07T18:14:09.667Z,85.90
2022-11-07T18:16:37.301Z,85.77
2022-11-07T18:19:05.558Z,86.00
2022-11-07T18:21:32.581Z,86.20
2022-11-07T18:23:59.120Z,85.79
2022-11-07T18:26:31.343Z,86.18
2022-11-07T18:29:02.520Z,86.30
2022-11-07T18:31:29.221Z,86.47
2022-11-07T18:33:57.980Z,86.58
2022-11-07T18:36:28.206Z,86.36
2022-11-07T18:38:54.720Z,86.99
2022-11-07T18:41:22.864Z,87.17
2022-11-07T18:43:49.726Z,87.31
2022-11-07T18:46:21.302Z,88.00
2022-11-07T18:48:48.585Z,87.53
2022-11-07T18:51:21.264Z,88.01
2022-11-07T18:53:49.505Z,88.03
2022-11-07T18:56:16.749Z,88.16
2022-11-07T18:58:44.696Z,87.86
2022-11-07T19:01:14.418Z,87.85
2022-11-07T19:03:41.937Z,87.68
2022-11-07T19:06:13.603Z,87.59
2022-11-07T19:08:41.801Z,87.51
2022-11-07T19:11:11.487Z,87.60
2022-11-07T19:13:42.169Z,87.79
2022-11-07T19:16:11.294Z,87.66
2022-11-07T19:18:38.378Z,87.79
2022-11-07T19:21:05.126Z,88.08
2022-11-07T19:23:32.501Z,88.02
2022-11-07T19:25:59.109Z,87.66
2022-11-07T19:28:25.778Z,87.69
2022-11-07T19:30:52.403Z,87.79
2022-11-07T19:33:20.345Z,87.41
2022-11-07T19:36:01.644Z,87.63
2022-11-07T19:38:30.413Z,87.43
2022-11-07T19:40:57.875Z,87.76
2022-11-07T19:43:24.455Z,87.12
2022-11-07T19:45:51.117Z,87.00
2022-11-07T19:48:18.971Z,87.59
2022-11-07T19:50:45.661Z,87.04
2022-11-07T19:53:12.337Z,87.07
2022-11-07T19:55:39.010Z,86.78
2022-11-07T19:58:05.725Z,87.05
2022-11-07T20:00:32.670Z,86.73
2022-11-07T20:02:59.579Z,87.06
2022-11-07T20:05:27.072Z,86.62
2022-11-07T20:07:57.083Z,86.87
2022-11-07T20:10:26.397Z,86.67
2022-11-07T20:12:52.982Z,86.54
2022-11-07T20:15:19.494Z,86.52
2022-11-07T20:17:47.133Z,86.50
2022-11-07T20:20:14.047Z,86.43
2022-11-07T20:22:46.479Z,86.56
2022-11-07T20:25:13.729Z,86.45
2022-11-07T20:27:40.565Z,86.43
2022-11-07T20:30:08.340Z,86.22
2022-11-07T20:32:34.900Z,86.03
2022-11-07T20:35:01.507Z,85.87
2022-11-07T20:37:28.022Z,85.85
2022-11-07T20:39:54.667Z,86.04
2022-11-07T20:42:21.639Z,85.94
2022-11-07T20:44:49.881Z,86.21
2022-11-07T20:47:17.003Z,85.99
2022-11-07T20:49:43.614Z,85.91
2022-11-07T20:52:10.173Z,85.92
2022-11-07T20:54:37.612Z,85.71
2022-11-07T20:57:05.121Z,85.76
2022-11-07T20:59:31.896Z,85.46
2022-11-07T21:02:03.221Z,85.67
2022-11-07T21:04:44.590Z,85.44
2022-11-07T21:07:22.658Z,85.66
2022-11-07T21:09:49.255Z,85.57
2022-11-07T21:12:16.219Z,85.59
2022-11-07T21:14:42.861Z,85.40
2022-11-07T21:17:09.792Z,85.33
2022-11-07T21:19:36.700Z,85.35
2022-11-07T21:22:04.195Z,85.83
2022-11-07T21:24:31.594Z,86.03
2022-11-07T21:26:58.669Z,85.64
2022-11-07T21:29:29.208Z,85.81
2022-11-07T21:31:56.745Z,86.31
2022-11-07T21:34:23.354Z,86.26
2022-11-07T21:36:49.932Z,86.52
2022-11-07T21:39:17.445Z,86.57
2022-11-07T21:41:44.077Z,86.64
2022-11-07T21:44:12.446Z,86.95
2022-11-07T21:46:39.452Z,87.24
2022-11-07T21:49:06.287Z,87.14
2022-11-07T21:51:35.244Z,87.38
2022-11-07T21:54:03.657Z,87.54
2022-11-07T21:56:32.572Z,87.98
2022-11-07T21:59:01.853Z,88.13
2022-11-07T22:01:29.599Z,88.24
2022-11-07T22:04:06.733Z,88.68
2022-11-07T22:06:36.457Z,88.96
2022-11-07T22:09:04.617Z,88.50
2022-11-07T22:11:31.300Z,88.79
2022-11-07T22:13:58.429Z,88.85
2022-11-07T22:16:25.211Z,89.28
2022-11-07T22:18:51.912Z,89.03
2022-11-07T22:21:21.203Z,89.13
2022-11-07T22:23:48.718Z,89.39
2022-11-07T22:26:21.040Z,89.29
2022-11-07T22:28:49.057Z,89.85
2022-11-07T22:31:18.297Z,89.64
2022-11-07T22:33:44.911Z,89.80
2022-11-07T22:36:12.799Z,89.81
2022-11-07T22:38:40.442Z,89.78
2022-11-07T22:41:13.768Z,90.17
2022-11-07T22:43:40.552Z,90.56
2022-11-07T22:46:10.599Z,90.55
2022-11-07T22:48:37.718Z,91.23
2022-11-07T22:51:10.805Z,91.03
2022-11-07T22:53:40.796Z,91.00
2022-11-07T22:56:16.063Z,91.12
2022-11-07T22:58:43.343Z,91.03
2022-11-07T23:01:24.987Z,91.17
2022-11-07T23:03:52.495Z,91.17
2022-11-07T23:06:20.179Z,90.68
2022-11-07T23:08:48.227Z,90.69
2022-11-07T23:14:07.589Z,90.78
2022-11-07T23:16:37.166Z,90.46
2022-11-07T23:19:06.692Z,90.64
2022-11-07T23:21:33.786Z,90.74
2022-11-07T23:24:01.003Z,91.21
2022-11-07T23:26:35.411Z,91.15
2022-11-07T23:29:14.948Z,90.96
2022-11-07T23:31:43.994Z,90.89
2022-11-07T23:34:11.404Z,90.94
2022-11-07T23:36:38.028Z,90.84
2022-11-07T23:39:10.437Z,91.18
2022-11-07T23:41:36.962Z,90.85
2022-11-07T23:44:03.598Z,90.97
2022-11-07T23:46:49.142Z,90.85
2022-11-07T23:49:34.590Z,90.87
2022-11-07T23:52:01.569Z,90.88
2022-11-07T23:54:46.735Z,90.71
2022-11-07T23:57:13.293Z,90.95
2022-11-07T23:59:58.738Z,90.86
